createdAt,value
2019-05-20T00:01:19.926Z,42.27
2019-05-20T00:05:24.188Z,37.88
2019-05-20T00:09:28.040Z,39.10
2019-05-20T00:11:31.302Z,37.08
2019-05-20T00:13:33.973Z,36.68
2019-05-20T00:15:36.675Z,37.13
2019-05-20T00:17:38.852Z,36.13
2019-05-20T00:19:44.006Z,34.00
2019-05-20T00:21:46.444Z,38.23
2019-05-20T00:25:51.025Z,39.05
2019-05-20T00:27:53.042Z,41.13
2019-05-20T00:29:55.229Z,39.95
2019-05-20T00:31:57.409Z,39.03
2019-05-20T00:36:01.436Z,46.00
2019-05-20T00:38:03.679Z,40.50
2019-05-20T00:40:06.875Z,44.65
2019-05-20T00:42:09.956Z,42.43
2019-05-20T00:44:12.215Z,47.48
2019-05-20T00:46:14.275Z,36.68
2019-05-20T00:48:16.379Z,43.33
2019-05-20T00:50:18.427Z,34.73
2019-05-20T00:52:20.623Z,39.67
2019-05-20T00:54:22.781Z,44.55
2019-05-20T00:56:25.012Z,50.25
2019-05-20T00:58:27.346Z,43.17
2019-05-20T01:00:30.205Z,51.70
2019-05-20T01:02:32.200Z,51.05
2019-05-20T01:04:34.284Z,51.37
2019-05-20T01:06:36.568Z,49.83
2019-05-20T01:08:38.792Z,55.33
2019-05-20T01:10:41.098Z,48.23
2019-05-20T01:12:43.334Z,49.27
2019-05-20T01:14:45.668Z,50.00
2019-05-20T01:16:48.114Z,44.45
2019-05-20T01:20:52.579Z,42.53
2019-05-20T01:22:55.327Z,43.15
2019-05-20T01:24:57.479Z,40.30
2019-05-20T01:26:59.484Z,43.85
2019-05-20T01:29:01.660Z,44.88
2019-05-20T01:31:03.840Z,39.80
2019-05-20T01:33:13.605Z,44.30
2019-05-20T01:35:11.614Z,40.85
2019-05-20T01:39:15.835Z,40.73
2019-05-20T01:41:17.888Z,38.78
2019-05-20T01:43:20.201Z,36.80
2019-05-20T01:45:22.193Z,41.58
2019-05-20T01:47:24.218Z,44.18
2019-05-20T01:49:26.223Z,37.75
2019-05-20T01:51:28.238Z,37.15
2019-05-20T01:53:30.258Z,35.80
2019-05-20T01:55:32.481Z,37.23
2019-05-20T01:57:34.491Z,34.65
2019-05-20T01:59:36.556Z,36.28
2019-05-20T02:01:38.826Z,37.67
2019-05-20T02:03:41.045Z,34.50
2019-05-20T02:05:46.012Z,32.88
2019-05-20T02:07:48.030Z,31.93
2019-05-20T02:09:50.142Z,33.58
2019-05-20T02:11:52.151Z,32.30
2019-05-20T02:13:58.287Z,35.98
2019-05-20T02:16:03.885Z,34.88
2019-05-20T02:18:05.960Z,34.33
2019-05-20T02:20:08.502Z,34.10
2019-05-20T02:22:12.183Z,37.83
2019-05-20T02:24:14.297Z,34.33
2019-05-20T02:26:16.335Z,38.35
2019-05-20T02:28:18.557Z,35.73
2019-05-20T02:30:20.555Z,36.68
2019-05-20T02:32:22.597Z,36.45
2019-05-20T02:34:24.836Z,36.75
2019-05-20T02:36:26.995Z,38.42
2019-05-20T02:38:29.081Z,37.67
2019-05-20T02:40:31.066Z,42.45
2019-05-20T02:42:34.811Z,40.10
2019-05-20T02:44:36.800Z,40.83
2019-05-20T02:46:39.617Z,39.73
2019-05-20T02:48:42.517Z,38.73
2019-05-20T02:50:45.159Z,41.77
2019-05-20T02:52:47.822Z,43.73
2019-05-20T02:54:51.358Z,49.40
2019-05-20T02:56:53.468Z,45.75
2019-05-20T02:58:55.474Z,42.83
2019-05-20T03:00:57.480Z,39.13
2019-05-20T03:02:59.465Z,42.03
2019-05-20T03:05:01.779Z,39.40
2019-05-20T03:07:04.159Z,34.13
2019-05-20T03:09:06.202Z,32.40
2019-05-20T03:11:09.806Z,29.57
2019-05-20T03:13:11.823Z,33.88
2019-05-20T03:15:14.001Z,35.25
2019-05-20T03:17:15.992Z,31.50
2019-05-20T03:19:18.022Z,31.12
2019-05-20T03:21:20.065Z,29.40
2019-05-20T03:23:22.225Z,26.85
2019-05-20T03:25:24.262Z,30.77
2019-05-20T03:27:26.233Z,27.77
2019-05-20T03:29:28.538Z,29.07
2019-05-20T03:31:30.568Z,30.23
2019-05-20T03:33:32.821Z,26.60
2019-05-20T03:35:35.012Z,27.22
2019-05-20T03:37:37.169Z,26.42
2019-05-20T03:39:40.487Z,23.90
2019-05-20T03:41:42.489Z,24.40
2019-05-20T03:43:44.572Z,22.93
2019-05-20T03:45:46.705Z,26.50
2019-05-20T03:47:48.756Z,21.82
2019-05-20T03:49:50.786Z,26.50
2019-05-20T03:51:55.773Z,27.40
2019-05-20T03:53:57.823Z,28.15
2019-05-20T03:55:59.862Z,25.52
2019-05-20T03:58:01.922Z,26.80
2019-05-20T04:00:04.776Z,25.30
2019-05-20T04:02:06.745Z,30.25
2019-05-20T04:04:08.717Z,32.08
2019-05-20T04:06:10.912Z,30.23
2019-05-20T04:08:12.966Z,31.25
2019-05-20T04:10:15.165Z,31.02
2019-05-20T04:12:17.468Z,40.40
2019-05-20T04:14:22.525Z,32.13
2019-05-20T04:16:24.507Z,31.57
2019-05-20T04:18:26.515Z,29.63
2019-05-20T04:20:29.225Z,33.02
2019-05-20T04:22:32.647Z,31.37
2019-05-20T04:24:34.759Z,28.73
2019-05-20T04:26:36.809Z,34.10
2019-05-20T04:28:38.900Z,34.45
2019-05-20T04:30:41.289Z,39.05
2019-05-20T04:32:44.463Z,34.05
2019-05-20T04:34:46.764Z,36.23
2019-05-20T04:36:48.903Z,42.53
2019-05-20T04:38:53.500Z,35.40
2019-05-20T04:40:55.779Z,40.60
2019-05-20T04:42:58.207Z,40.78
2019-05-20T04:47:03.182Z,46.60
2019-05-20T04:49:06.510Z,48.95
2019-05-20T04:51:09.176Z,41.83
2019-05-20T04:53:11.920Z,50.90
2019-05-20T04:55:14.870Z,46.65
2019-05-20T04:57:17.532Z,43.92
2019-05-20T04:59:20.416Z,46.35
2019-05-20T05:01:23.492Z,45.45
2019-05-20T05:03:28.721Z,39.50
2019-05-20T05:05:37.515Z,40.73
2019-05-20T05:07:36.348Z,50.55
2019-05-20T05:09:38.964Z,48.75
2019-05-20T05:11:41.680Z,43.42
2019-05-20T05:15:46.739Z,41.75
2019-05-20T05:17:49.511Z,38.02
2019-05-20T05:19:52.278Z,50.20
2019-05-20T05:21:55.065Z,42.38
2019-05-20T05:23:59.637Z,41.42
2019-05-20T05:26:02.383Z,36.33
2019-05-20T05:28:05.014Z,45.88
2019-05-20T05:30:08.051Z,42.08
2019-05-20T05:32:10.505Z,39.45
2019-05-20T05:36:16.266Z,32.55
2019-05-20T05:38:18.893Z,30.15
2019-05-20T05:40:25.483Z,32.98
2019-05-20T05:42:28.937Z,30.20
2019-05-20T05:47:07.821Z,35.17
2019-05-20T05:49:10.223Z,31.48
2019-05-20T05:51:13.200Z,31.82
2019-05-20T05:53:16.581Z,24.47
2019-05-20T05:55:19.257Z,29.25
2019-05-20T05:57:22.260Z,25.68
2019-05-20T05:59:25.056Z,28.55
2019-05-20T06:01:28.114Z,24.20
2019-05-20T06:03:30.465Z,28.05
2019-05-20T06:05:34.713Z,27.42
2019-05-20T06:07:38.426Z,26.52
2019-05-20T06:09:41.373Z,25.30
2019-05-20T06:11:44.620Z,26.65
2019-05-20T06:13:47.120Z,23.95
2019-05-20T06:15:49.853Z,29.10
2019-05-20T06:17:52.754Z,22.87
2019-05-20T06:19:55.268Z,24.07
2019-05-20T06:21:57.840Z,22.27
2019-05-20T06:24:00.836Z,26.82
2019-05-20T06:26:03.494Z,22.27
2019-05-20T06:31:01.267Z,24.23
2019-05-20T06:36:05.452Z,26.07
2019-05-20T06:38:12.613Z,30.85
2019-05-20T06:40:15.112Z,29.90
2019-05-20T06:42:19.250Z,33.30
2019-05-20T06:44:21.448Z,34.25
2019-05-20T06:46:24.267Z,32.28
2019-05-20T06:48:26.268Z,30.35
2019-05-20T06:50:29.777Z,28.32
2019-05-20T06:52:35.799Z,30.40
2019-05-20T06:54:36.055Z,23.18
2019-05-20T06:56:38.148Z,26.17
2019-05-20T06:58:41.306Z,27.67
2019-05-20T07:00:44.807Z,22.75
2019-05-20T07:02:46.788Z,20.72
2019-05-20T07:04:48.851Z,27.15
2019-05-20T07:06:51.088Z,28.20
2019-05-20T07:10:57.477Z,22.85
2019-05-20T07:12:59.734Z,22.65
2019-05-20T07:15:02.016Z,19.35
2019-05-20T07:17:06.051Z,21.57
2019-05-20T07:19:08.187Z,24.55
2019-05-20T07:21:10.350Z,30.00
2019-05-20T07:23:12.402Z,25.43
2019-05-20T07:25:14.975Z,23.38
2019-05-20T07:29:18.677Z,21.12
2019-05-20T07:31:21.061Z,23.30
2019-05-20T07:33:23.243Z,19.70
2019-05-20T07:35:30.647Z,23.25
2019-05-20T07:37:30.039Z,21.45
2019-05-20T07:41:33.791Z,22.98
2019-05-20T07:43:35.799Z,23.87
2019-05-20T07:45:37.999Z,20.90
2019-05-20T07:47:40.092Z,21.27
2019-05-20T07:49:43.097Z,23.65
2019-05-20T07:51:45.774Z,26.40
2019-05-20T07:53:48.360Z,25.00
2019-05-20T07:57:59.472Z,28.90
2019-05-20T08:00:02.201Z,23.73
2019-05-20T08:02:05.737Z,20.80
2019-05-20T08:04:07.888Z,19.17
2019-05-20T08:06:10.347Z,21.12
2019-05-20T08:10:15.115Z,22.27
2019-05-20T08:12:17.205Z,23.20
2019-05-20T08:14:19.610Z,25.30
2019-05-20T08:16:21.633Z,26.85
2019-05-20T08:18:23.737Z,21.73
2019-05-20T08:20:26.005Z,22.32
2019-05-20T08:22:27.988Z,21.42
2019-05-20T08:24:29.990Z,18.15
2019-05-20T08:26:32.128Z,23.57
2019-05-20T08:28:34.411Z,19.40
2019-05-20T08:30:38.070Z,19.75
2019-05-20T08:32:40.431Z,20.75
2019-05-20T08:36:44.260Z,15.38
2019-05-20T08:38:46.571Z,15.90
2019-05-20T08:40:49.045Z,13.55
2019-05-20T08:44:54.021Z,17.07
2019-05-20T08:46:56.035Z,18.95
2019-05-20T08:48:58.307Z,14.53
2019-05-20T08:51:00.611Z,17.42
2019-05-20T08:53:02.702Z,19.80
2019-05-20T08:55:05.873Z,21.30
2019-05-20T08:57:08.213Z,15.03
2019-05-20T09:01:12.594Z,19.85
2019-05-20T09:03:14.748Z,18.12
2019-05-20T09:05:17.011Z,18.52
2019-05-20T09:07:19.088Z,18.60
2019-05-20T09:09:21.472Z,15.18
2019-05-20T09:11:23.546Z,17.87
2019-05-20T09:13:25.807Z,18.30
2019-05-20T09:15:28.585Z,15.32
2019-05-20T09:17:31.204Z,18.40
2019-05-20T09:19:34.490Z,16.65
2019-05-20T09:21:36.470Z,18.87
2019-05-20T09:23:38.494Z,19.12
2019-05-20T09:25:40.529Z,18.20
2019-05-20T09:27:42.865Z,18.80
2019-05-20T09:29:45.196Z,19.57
2019-05-20T09:31:47.422Z,14.73
2019-05-20T09:33:50.070Z,13.85
2019-05-20T09:35:52.323Z,16.93
2019-05-20T09:37:54.324Z,17.95
2019-05-20T09:39:56.887Z,14.73
2019-05-20T09:44:00.611Z,14.43
2019-05-20T09:46:07.814Z,14.87
2019-05-20T09:48:07.272Z,16.87
2019-05-20T09:50:09.609Z,15.53
2019-05-20T09:54:13.926Z,19.37
2019-05-20T09:56:16.038Z,20.48
2019-05-20T09:58:18.117Z,19.80
2019-05-20T10:00:20.350Z,24.15
2019-05-20T10:02:22.647Z,19.67
2019-05-20T10:04:24.802Z,20.85
2019-05-20T10:06:27.268Z,24.37
2019-05-20T10:08:39.189Z,29.27
2019-05-20T10:10:33.454Z,25.48
2019-05-20T10:12:46.160Z,29.42
2019-05-20T10:14:39.437Z,25.52
2019-05-20T10:16:41.517Z,27.20
2019-05-20T10:18:43.601Z,31.45
2019-05-20T10:20:45.591Z,27.85
2019-05-20T10:22:48.167Z,29.27
2019-05-20T10:26:52.215Z,26.87
2019-05-20T10:28:54.465Z,29.07
2019-05-20T10:30:56.577Z,28.75
2019-05-20T10:32:58.557Z,28.10
2019-05-20T10:35:00.835Z,30.77
2019-05-20T10:37:03.087Z,30.12
2019-05-20T10:39:07.923Z,30.15
2019-05-20T10:41:09.684Z,30.43
2019-05-20T10:43:11.719Z,28.75
2019-05-20T10:45:14.520Z,29.82
2019-05-20T10:47:16.716Z,29.98
2019-05-20T10:49:18.712Z,32.83
2019-05-20T10:51:20.778Z,30.10
2019-05-20T10:53:23.001Z,29.85
2019-05-20T10:55:27.152Z,31.87
2019-05-20T10:57:29.383Z,32.83
2019-05-20T10:59:31.750Z,25.97
2019-05-20T11:01:33.934Z,27.20
2019-05-20T11:03:35.987Z,28.12
2019-05-20T11:05:38.241Z,23.27
2019-05-20T11:07:40.288Z,22.80
2019-05-20T11:09:42.364Z,24.98
2019-05-20T11:11:44.536Z,29.60
2019-05-20T11:13:46.706Z,25.02
2019-05-20T11:15:48.771Z,27.20
2019-05-20T11:17:51.120Z,27.07
2019-05-20T11:19:53.198Z,23.83
2019-05-20T11:21:55.589Z,26.87
2019-05-20T11:23:57.928Z,29.10
2019-05-20T11:26:00.266Z,29.25
2019-05-20T11:30:05.125Z,31.33
2019-05-20T11:32:07.141Z,35.43
2019-05-20T11:34:09.194Z,35.38
2019-05-20T11:36:11.527Z,34.88
2019-05-20T11:38:13.662Z,37.88
2019-05-20T11:40:16.190Z,41.60
2019-05-20T11:42:21.409Z,44.83
2019-05-20T11:44:24.194Z,43.33
2019-05-20T11:46:26.247Z,43.73
2019-05-20T11:48:28.720Z,40.73
2019-05-20T11:52:33.703Z,41.15
2019-05-20T11:54:36.799Z,39.20
2019-05-20T11:56:38.918Z,41.77
2019-05-20T11:58:41.101Z,42.40
2019-05-20T12:00:43.361Z,40.92
2019-05-20T12:02:45.350Z,47.62
2019-05-20T12:04:47.546Z,44.65
2019-05-20T12:06:49.945Z,44.08
2019-05-20T12:08:51.980Z,47.62
2019-05-20T12:10:54.022Z,47.90
2019-05-20T12:12:56.438Z,53.60
2019-05-20T12:17:00.719Z,39.30
2019-05-20T12:21:04.798Z,44.53
2019-05-20T12:23:06.986Z,42.17
2019-05-20T12:25:09.447Z,42.35
2019-05-20T12:29:13.263Z,46.92
2019-05-20T12:31:16.662Z,48.73
2019-05-20T12:33:19.700Z,47.25
2019-05-20T12:35:22.081Z,53.00
2019-05-20T12:37:24.470Z,42.70
2019-05-20T12:39:26.760Z,44.27
2019-05-20T12:43:31.272Z,50.03
2019-05-20T12:45:34.637Z,46.73
2019-05-20T12:47:36.867Z,47.93
2019-05-20T12:49:39.095Z,47.58
2019-05-20T12:51:41.337Z,47.93
2019-05-20T12:53:43.372Z,48.85
2019-05-20T12:55:45.687Z,46.95
2019-05-20T12:57:47.695Z,37.00
2019-05-20T12:59:49.733Z,40.52
2019-05-20T13:01:51.980Z,37.80
2019-05-20T13:03:54.251Z,44.80
2019-05-20T13:05:56.227Z,39.03
2019-05-20T13:07:58.477Z,40.15
2019-05-20T13:10:03.006Z,47.78
2019-05-20T13:12:04.513Z,50.15
2019-05-20T13:14:07.728Z,50.92
2019-05-20T13:16:10.008Z,44.65
2019-05-20T13:18:12.033Z,47.17
2019-05-20T13:20:14.537Z,53.38
2019-05-20T13:24:18.819Z,52.90
2019-05-20T13:26:20.914Z,58.45
2019-05-20T13:28:23.033Z,60.15
2019-05-20T13:30:25.206Z,58.83
2019-05-20T13:32:27.878Z,58.75
2019-05-20T13:36:31.611Z,64.72
2019-05-20T13:38:33.816Z,65.30
2019-05-20T13:40:46.378Z,69.82
2019-05-20T13:42:40.912Z,80.22
2019-05-20T13:44:43.189Z,80.60
2019-05-20T13:46:45.269Z,81.67
2019-05-20T13:48:47.400Z,82.22
2019-05-20T13:50:49.761Z,82.02
2019-05-20T13:52:51.828Z,83.55
2019-05-20T13:54:53.945Z,83.35
2019-05-20T13:57:02.040Z,83.15
2019-05-20T13:59:05.189Z,71.40
2019-05-20T14:01:07.226Z,71.35
2019-05-20T14:03:09.519Z,71.75
2019-05-20T14:05:11.922Z,69.60
2019-05-20T14:07:14.012Z,71.62
2019-05-20T14:09:16.417Z,72.67
2019-05-20T14:13:22.315Z,66.30
2019-05-20T14:15:24.555Z,62.30
2019-05-20T14:17:26.776Z,65.87
2019-05-20T14:19:28.962Z,69.30
2019-05-20T14:21:31.263Z,61.98
2019-05-20T14:23:34.405Z,69.53
2019-05-20T14:25:37.607Z,58.02
2019-05-20T14:27:40.009Z,65.70
2019-05-20T14:29:42.085Z,65.57
2019-05-20T14:31:45.945Z,65.52
2019-05-20T14:33:48.633Z,58.17
2019-05-20T14:35:50.907Z,59.58
2019-05-20T14:37:55.791Z,58.17
2019-05-20T14:39:58.571Z,61.10
2019-05-20T14:42:01.673Z,59.98
2019-05-20T14:44:03.783Z,54.95
2019-05-20T14:46:06.331Z,54.38
2019-05-20T14:50:10.564Z,46.13
2019-05-20T14:52:12.952Z,42.27
2019-05-20T14:56:17.494Z,35.58
2019-05-20T14:58:19.909Z,29.40
2019-05-20T15:02:23.898Z,36.60
2019-05-20T15:04:26.433Z,31.97
2019-05-20T15:06:28.732Z,30.92
2019-05-20T15:08:34.272Z,34.53
2019-05-20T15:10:35.069Z,32.48
2019-05-20T15:12:37.480Z,31.60
2019-05-20T15:14:42.445Z,32.20
2019-05-20T15:16:43.618Z,30.08
2019-05-20T15:18:46.857Z,30.30
2019-05-20T15:20:48.907Z,32.17
2019-05-20T15:22:51.024Z,31.60
2019-05-20T15:24:53.124Z,31.37
2019-05-20T15:26:57.138Z,33.65
2019-05-20T15:28:59.383Z,31.70
2019-05-20T15:31:01.443Z,33.28
2019-05-20T15:33:03.705Z,35.38
2019-05-20T15:35:06.013Z,35.90
2019-05-20T15:37:08.088Z,28.47
2019-05-20T15:39:11.333Z,34.18
2019-05-20T15:41:13.997Z,34.10
2019-05-20T15:43:16.150Z,33.18
2019-05-20T15:45:18.463Z,32.25
2019-05-20T15:47:20.679Z,40.48
2019-05-20T15:49:22.955Z,41.58
2019-05-20T15:51:26.182Z,40.63
2019-05-20T15:53:28.519Z,43.48
2019-05-20T15:55:32.435Z,37.15
2019-05-20T15:57:34.805Z,36.77
2019-05-20T15:59:45.852Z,37.95
2019-05-20T16:01:41.192Z,39.45
2019-05-20T16:03:43.375Z,38.35
2019-05-20T16:05:45.723Z,30.88
2019-05-20T16:07:49.057Z,42.00
2019-05-20T16:09:51.318Z,43.20
2019-05-20T16:11:53.521Z,37.95
2019-05-20T16:13:55.581Z,44.83
2019-05-20T16:15:57.902Z,46.50
2019-05-20T16:20:02.239Z,56.83
2019-05-20T16:22:06.613Z,66.97
2019-05-20T16:24:10.101Z,54.90
2019-05-20T16:28:14.361Z,50.43
2019-05-20T16:32:18.516Z,43.93
2019-05-20T16:34:21.969Z,49.80
2019-05-20T16:36:24.316Z,43.28
2019-05-20T16:40:28.539Z,36.00
2019-05-20T16:42:30.807Z,38.53
2019-05-20T16:44:32.972Z,39.20
2019-05-20T16:46:35.273Z,40.73
2019-05-20T16:48:37.759Z,42.50
2019-05-20T16:50:39.819Z,39.03
2019-05-20T16:52:42.090Z,46.05
2019-05-20T16:54:44.612Z,41.02
2019-05-20T16:58:48.710Z,39.83
2019-05-20T17:00:51.098Z,48.33
2019-05-20T17:04:55.372Z,46.70
2019-05-20T17:06:57.486Z,34.75
2019-05-20T17:08:59.614Z,29.70
2019-05-20T17:11:01.686Z,32.42
2019-05-20T17:13:04.181Z,32.78
2019-05-20T17:17:08.307Z,30.10
2019-05-20T17:19:10.579Z,34.48
2019-05-20T17:21:12.609Z,29.72
2019-05-20T17:23:14.744Z,22.80
2019-05-20T17:25:17.176Z,29.18
2019-05-20T17:29:20.920Z,27.05
2019-05-20T17:31:23.262Z,25.17
2019-05-20T17:33:25.697Z,32.78
2019-05-20T17:37:29.992Z,31.85
2019-05-20T17:39:32.190Z,33.88
2019-05-20T17:41:34.281Z,39.70
2019-05-20T17:43:36.596Z,31.82
2019-05-20T17:45:38.697Z,39.58
2019-05-20T17:47:40.835Z,35.80
2019-05-20T17:49:43.088Z,37.00
2019-05-20T17:51:45.201Z,49.65
2019-05-20T17:53:47.286Z,40.23
2019-05-20T17:55:49.533Z,45.88
2019-05-20T17:57:51.913Z,44.33
2019-05-20T17:59:55.427Z,44.55
2019-05-20T18:01:58.897Z,45.40
2019-05-20T18:06:02.940Z,42.40
2019-05-20T18:08:06.311Z,41.15
2019-05-20T18:10:09.248Z,42.35
2019-05-20T18:12:11.375Z,45.43
2019-05-20T18:14:16.714Z,48.75
2019-05-20T18:16:18.797Z,38.25
2019-05-20T18:18:20.869Z,38.05
2019-05-20T18:20:23.696Z,45.15
2019-05-20T18:22:25.778Z,50.17
2019-05-20T18:24:27.858Z,42.43
2019-05-20T18:26:30.195Z,41.65
2019-05-20T18:28:32.221Z,44.85
2019-05-20T18:30:34.463Z,45.10
2019-05-20T18:32:38.539Z,43.73
2019-05-20T18:34:40.480Z,39.60
2019-05-20T18:36:42.709Z,45.35
2019-05-20T18:38:44.926Z,43.98
2019-05-20T18:40:46.944Z,43.98
2019-05-20T18:42:51.023Z,53.68
2019-05-20T18:44:53.386Z,54.30
2019-05-20T18:46:56.585Z,49.23
2019-05-20T18:48:58.690Z,52.20
2019-05-20T18:51:00.836Z,51.80
2019-05-20T18:53:02.926Z,59.40
2019-05-20T18:55:05.170Z,53.48
2019-05-20T18:57:08.720Z,49.20
2019-05-20T18:59:11.040Z,52.08
2019-05-20T19:01:13.136Z,56.13
2019-05-20T19:03:15.518Z,55.65
2019-05-20T19:05:17.783Z,49.38
2019-05-20T19:07:20.054Z,58.70
2019-05-20T19:09:22.733Z,68.85
2019-05-20T19:11:24.885Z,57.50
2019-05-20T19:13:26.940Z,64.15
2019-05-20T19:15:29.558Z,62.58
2019-05-20T19:17:31.775Z,63.70
2019-05-20T19:19:34.335Z,59.42
2019-05-20T19:23:38.259Z,48.90
2019-05-20T19:25:40.319Z,49.42
2019-05-20T19:27:42.683Z,59.05
2019-05-20T19:29:45.017Z,52.65
2019-05-20T19:32:00.892Z,42.30
2019-05-20T19:33:52.076Z,49.42
2019-05-20T19:35:55.025Z,57.05
2019-05-20T19:37:59.966Z,51.63
2019-05-20T19:40:04.312Z,53.68
2019-05-20T19:42:08.762Z,54.23
2019-05-20T19:44:13.305Z,64.03
2019-05-20T19:46:16.768Z,59.35
2019-05-20T19:48:19.226Z,73.00
2019-05-20T19:52:23.723Z,64.97
2019-05-20T19:56:28.262Z,61.73
2019-05-20T20:00:32.217Z,54.50
2019-05-20T20:02:35.390Z,58.63
2019-05-20T20:04:38.173Z,62.67
2019-05-20T20:06:40.212Z,58.42
2019-05-20T20:08:42.354Z,57.08
2019-05-20T20:10:44.632Z,54.00
2019-05-20T20:12:47.462Z,59.23
2019-05-20T20:14:49.622Z,58.10
2019-05-20T20:16:54.110Z,52.83
2019-05-20T20:18:58.135Z,60.63
2019-05-20T20:21:00.327Z,53.15
2019-05-20T20:23:02.551Z,59.53
2019-05-20T20:25:04.919Z,54.73
2019-05-20T20:27:07.177Z,63.78
2019-05-20T20:29:11.234Z,59.90
2019-05-20T20:31:13.489Z,63.95
2019-05-20T20:33:15.608Z,60.43
2019-05-20T20:35:18.081Z,52.50
2019-05-20T20:37:21.178Z,62.30
2019-05-20T20:39:23.265Z,60.28
2019-05-20T20:41:25.436Z,64.40
2019-05-20T20:43:32.109Z,61.35
2019-05-20T20:45:33.258Z,69.05
2019-05-20T20:47:41.633Z,61.00
2019-05-20T20:49:39.791Z,54.03
2019-05-20T20:51:41.831Z,52.40
2019-05-20T20:53:44.130Z,52.75
2019-05-20T20:55:46.139Z,52.88
2019-05-20T20:57:48.406Z,59.42
2019-05-20T20:59:50.627Z,61.35
2019-05-20T21:01:56.738Z,60.70
2019-05-20T21:03:56.584Z,64.72
2019-05-20T21:05:58.954Z,63.05
2019-05-20T21:10:03.687Z,59.45
2019-05-20T21:12:06.364Z,64.20
2019-05-20T21:16:10.364Z,56.70
2019-05-20T21:18:12.656Z,53.23
2019-05-20T21:20:14.741Z,55.00
2019-05-20T21:22:16.998Z,56.70
2019-05-20T21:24:19.256Z,61.28
2019-05-20T21:26:21.414Z,53.02
2019-05-20T21:28:23.493Z,57.13
2019-05-20T21:30:25.741Z,64.65
2019-05-20T21:32:27.741Z,58.83
2019-05-20T21:34:29.779Z,69.22
2019-05-20T21:36:46.463Z,52.85
2019-05-20T21:38:36.258Z,57.45
2019-05-20T21:40:38.285Z,51.65
2019-05-20T21:42:40.893Z,56.45
2019-05-20T21:44:43.120Z,61.10
2019-05-20T21:46:45.167Z,56.05
2019-05-20T21:48:47.690Z,52.30
2019-05-20T21:52:51.605Z,50.45
2019-05-20T21:56:12.510Z,50.48
2019-05-20T22:00:23.243Z,47.93
2019-05-20T22:02:27.830Z,47.40
2019-05-20T22:04:30.043Z,48.90
2019-05-20T22:06:32.338Z,37.70
2019-05-20T22:10:36.801Z,40.08
2019-05-20T22:12:39.057Z,40.65
2019-05-20T22:14:41.526Z,47.03
2019-05-20T22:16:43.833Z,44.42
2019-05-20T22:18:45.994Z,41.95
2019-05-20T22:20:48.438Z,40.83
2019-05-20T22:25:11.866Z,40.85
2019-05-20T22:27:14.358Z,35.48
2019-05-20T22:29:16.874Z,45.70
2019-05-20T22:33:21.679Z,43.95
2019-05-20T22:35:24.897Z,33.90
2019-05-20T22:37:27.257Z,35.17
2019-05-20T22:39:29.713Z,34.88
2019-05-20T22:43:33.948Z,31.17
2019-05-20T22:45:36.409Z,30.50
2019-05-20T22:49:45.210Z,30.62
2019-05-20T22:51:51.916Z,33.92
2019-05-20T22:54:13.747Z,35.68
2019-05-20T22:56:15.016Z,34.10
2019-05-20T22:58:18.695Z,36.45
2019-05-20T23:00:20.893Z,37.20
2019-05-20T23:04:25.310Z,34.20
2019-05-20T23:08:29.713Z,29.27
2019-05-20T23:10:32.179Z,29.63
2019-05-20T23:14:36.310Z,34.83
2019-05-20T23:16:38.894Z,35.90
2019-05-20T23:18:41.996Z,35.40
2019-05-20T23:20:44.149Z,42.53
2019-05-20T23:22:46.502Z,29.45
2019-05-20T23:24:48.641Z,40.90
2019-05-20T23:26:51.013Z,37.98
2019-05-20T23:30:55.220Z,35.10
2019-05-20T23:32:57.883Z,32.45
2019-05-20T23:37:02.141Z,42.80
2019-05-20T23:39:06.825Z,45.75
2019-05-20T23:41:09.255Z,41.53
2019-05-20T23:45:14.255Z,44.83
2019-05-20T23:47:16.668Z,42.58
2019-05-20T23:51:20.773Z,40.25
2019-05-20T23:53:23.155Z,43.48
2019-05-20T23:57:27.363Z,38.58
2019-05-20T23:59:29.756Z,41.80
